KMJX/MJX METAR and TAF weather

Enter ICAO airport designator
Station Type Date Time Source
KMJX METAR 2022/01/29 00:54 UTC NOAA

KMJX 290054Z AUTO 02007KT 2 1/2SM -SN BR BKN005 BKN014 OVC038 M01/M01 A2999 RMK AO2 VIS 2 1/2V3 CIG 004V010 P0000 FZRANO


Station Type Date Time Source
KMJX Decoded METAR 2022/01/29 00:54 UTC NOAA

Station name not available
Jan 28, 2022 - 07:54 PM EST / 2022.01.29 0054 UTC
Wind: from the NNE (020 degrees) at 8 MPH (7 KT):0
Visibility: 2 1/2 mile(s):0
Sky conditions: overcast
Weather: light snow; mist
Precipitation last hour: A trace
Temperature: 30 F (-1 C)
Windchill: 23 F (-5 C):1
Dew Point: 30 F (-1 C)
Relative Humidity: 100%
Pressure (altimeter): 29.99 in. Hg (1015 hPa)
ob: KMJX 290054Z AUTO 02007KT 2 1/2SM -SN BR BKN005 BKN014 OVC038 M01/M01 A2999 RMK AO2 VIS 2 1/2V3 CIG 004V010 P0000 FZRANO
cycle: 1

Station Type Date Time Source
KMJX TAF UTC NOAA

Error!

Example: see airport list